createdAt,value
2022-09-30T00:01:40.810Z,11.40
2022-09-30T00:04:13.652Z,11.30
2022-09-30T00:06:40.452Z,11.20
2022-09-30T00:09:07.794Z,11.30
2022-09-30T00:11:35.926Z,11.20
2022-09-30T00:14:02.939Z,11.30
2022-09-30T00:16:33.840Z,11.30
2022-09-30T00:19:00.645Z,11.20
2022-09-30T00:21:28.682Z,11.20
2022-09-30T00:23:56.257Z,11.90
2022-09-30T00:26:24.207Z,11.10
2022-09-30T00:28:52.711Z,11.20
2022-09-30T00:31:20.770Z,11.10
2022-09-30T00:34:06.682Z,13.30
2022-09-30T00:36:44.706Z,11.10
2022-09-30T00:39:18.503Z,11.10
2022-09-30T00:41:48.660Z,11.10
2022-09-30T00:44:43.197Z,11.10
2022-09-30T00:47:25.012Z,11.10
2022-09-30T00:49:52.244Z,11.00
2022-09-30T00:52:19.500Z,11.00
2022-09-30T00:54:46.301Z,11.00
2022-09-30T00:57:13.018Z,10.90
2022-09-30T00:59:44.742Z,10.90
2022-09-30T01:02:12.995Z,10.90
2022-09-30T01:04:40.852Z,10.80
2022-09-30T01:07:08.811Z,10.80
2022-09-30T01:09:38.192Z,10.80
2022-09-30T01:12:07.437Z,10.80
2022-09-30T01:14:35.731Z,10.80
2022-09-30T01:17:06.445Z,10.70
2022-09-30T01:20:00.417Z,10.80
2022-09-30T01:22:44.767Z,10.70
2022-09-30T01:25:49.362Z,10.70
2022-09-30T01:28:45.344Z,10.70
2022-09-30T01:31:14.862Z,10.60
2022-09-30T01:34:15.468Z,10.60
2022-09-30T01:37:13.245Z,10.60
2022-09-30T01:39:51.692Z,10.60
2022-09-30T01:42:42.085Z,10.60
2022-09-30T01:45:13.190Z,10.60
2022-09-30T01:47:57.649Z,10.50
2022-09-30T01:51:03.161Z,10.40
2022-09-30T01:53:43.587Z,10.50
2022-09-30T01:56:23.133Z,10.50
2022-09-30T01:59:05.573Z,10.50
2022-09-30T02:02:20.457Z,10.50
2022-09-30T02:05:15.707Z,10.50
2022-09-30T02:08:04.600Z,10.50
2022-09-30T02:10:46.514Z,10.50
2022-09-30T02:13:24.479Z,10.40
2022-09-30T02:16:02.602Z,10.50
2022-09-30T02:18:39.227Z,10.50
2022-09-30T02:21:09.058Z,10.40
2022-09-30T02:23:40.856Z,10.50
2022-09-30T02:26:14.554Z,10.40
2022-09-30T02:28:46.994Z,10.40
2022-09-30T02:31:16.419Z,10.40
2022-09-30T02:33:52.305Z,10.40
2022-09-30T02:36:37.536Z,10.30
2022-09-30T02:39:21.733Z,10.30
2022-09-30T02:41:53.885Z,10.40
2022-09-30T02:44:21.998Z,10.30
2022-09-30T02:47:07.166Z,10.30
2022-09-30T02:49:58.618Z,10.20
2022-09-30T02:52:36.991Z,10.10
2022-09-30T02:55:18.003Z,10.20
2022-09-30T02:57:47.670Z,10.10
2022-09-30T03:00:14.442Z,10.10
2022-09-30T03:02:42.117Z,10.20
2022-09-30T03:05:10.349Z,10.10
2022-09-30T03:07:37.633Z,10.10
2022-09-30T03:10:22.560Z,10.10
2022-09-30T03:13:10.264Z,10.00
2022-09-30T03:15:42.864Z,10.00
2022-09-30T03:18:41.269Z,10.00
2022-09-30T03:21:10.756Z,10.00
2022-09-30T03:23:48.409Z,10.30
2022-09-30T03:26:24.348Z,9.90
2022-09-30T03:28:56.929Z,9.90
2022-09-30T03:31:32.680Z,9.90
2022-09-30T03:34:15.305Z,10.00
2022-09-30T03:37:00.314Z,9.90
2022-09-30T03:39:42.927Z,9.80
2022-09-30T03:42:27.057Z,9.80
2022-09-30T03:45:11.606Z,9.80
2022-09-30T03:47:45.489Z,9.80
2022-09-30T03:50:16.928Z,9.90
2022-09-30T03:52:43.714Z,9.80
2022-09-30T03:55:11.689Z,9.70
2022-09-30T03:57:39.185Z,9.80
2022-09-30T04:00:07.560Z,9.70
2022-09-30T04:02:35.982Z,9.80
2022-09-30T04:05:02.722Z,9.70
2022-09-30T04:07:29.545Z,9.80
2022-09-30T04:09:56.371Z,9.80
2022-09-30T04:12:23.099Z,9.70
2022-09-30T04:14:50.195Z,9.70
2022-09-30T04:17:16.849Z,9.70
2022-09-30T04:19:43.730Z,9.70
2022-09-30T04:22:10.503Z,9.80
2022-09-30T04:24:37.286Z,9.70
2022-09-30T04:27:04.042Z,9.70
2022-09-30T04:29:30.897Z,9.70
2022-09-30T04:31:57.816Z,9.70
2022-09-30T04:34:24.486Z,9.70
2022-09-30T04:36:51.224Z,9.60
2022-09-30T04:39:17.920Z,9.60
2022-09-30T04:41:44.695Z,9.70
2022-09-30T04:44:11.905Z,9.70
2022-09-30T04:46:38.605Z,9.70
2022-09-30T04:49:08.998Z,9.60
2022-09-30T04:51:36.456Z,9.60
2022-09-30T04:54:03.390Z,9.60
2022-09-30T04:56:30.120Z,9.60
2022-09-30T04:58:57.342Z,9.60
2022-09-30T05:01:24.276Z,9.60
2022-09-30T05:03:51.045Z,9.60
2022-09-30T05:06:18.092Z,9.60
2022-09-30T05:08:46.408Z,9.60
2022-09-30T05:11:19.073Z,10.40
2022-09-30T05:13:46.404Z,9.40
2022-09-30T05:16:14.332Z,9.50
2022-09-30T05:18:42.642Z,9.40
2022-09-30T05:21:10.333Z,9.40
2022-09-30T05:23:36.984Z,9.50
2022-09-30T05:26:05.761Z,9.40
2022-09-30T05:28:35.310Z,9.40
2022-09-30T05:31:06.213Z,9.40
2022-09-30T05:33:34.769Z,9.30
2022-09-30T05:36:03.933Z,9.30
2022-09-30T05:38:30.729Z,9.50
2022-09-30T05:40:57.587Z,10.40
2022-09-30T05:43:24.700Z,9.30
2022-09-30T05:45:57.852Z,9.40
2022-09-30T05:48:25.743Z,9.30
2022-09-30T05:50:57.237Z,9.30
2022-09-30T05:53:24.739Z,9.40
2022-09-30T05:55:52.163Z,9.30
2022-09-30T05:58:20.401Z,9.30
2022-09-30T06:00:48.953Z,10.60
2022-09-30T06:03:17.062Z,9.30
2022-09-30T06:05:45.661Z,9.40
2022-09-30T06:08:13.277Z,9.40
2022-09-30T06:10:44.468Z,9.40
2022-09-30T06:13:11.657Z,9.40
2022-09-30T06:15:39.551Z,9.40
2022-09-30T06:18:06.970Z,9.30
2022-09-30T06:20:33.825Z,9.40
2022-09-30T06:23:01.357Z,9.40
2022-09-30T06:25:29.278Z,9.50
2022-09-30T06:27:56.328Z,9.50
2022-09-30T06:30:23.391Z,9.60
2022-09-30T06:32:50.085Z,9.70
2022-09-30T06:35:16.944Z,9.80
2022-09-30T06:37:44.913Z,9.90
2022-09-30T06:40:11.878Z,10.00
2022-09-30T06:42:38.601Z,10.10
2022-09-30T06:45:05.837Z,10.30
2022-09-30T06:47:33.273Z,10.30
2022-09-30T06:50:00.174Z,10.40
2022-09-30T06:52:27.251Z,10.40
2022-09-30T06:54:56.635Z,10.50
2022-09-30T06:57:24.767Z,10.60
2022-09-30T06:59:51.808Z,11.20
2022-09-30T07:02:18.638Z,10.80
2022-09-30T07:04:45.392Z,10.90
2022-09-30T07:07:12.267Z,10.90
2022-09-30T07:09:39.137Z,11.10
2022-09-30T07:12:08.724Z,11.20
2022-09-30T07:14:36.954Z,11.30
2022-09-30T07:17:04.545Z,11.40
2022-09-30T07:19:32.108Z,11.50
2022-09-30T07:22:21.466Z,11.70
2022-09-30T07:24:48.550Z,11.80
2022-09-30T07:27:15.532Z,12.00
2022-09-30T07:30:04.243Z,12.20
2022-09-30T07:32:29.820Z,12.30
2022-09-30T07:34:57.128Z,12.40
2022-09-30T07:37:25.557Z,12.50
2022-09-30T07:39:53.265Z,12.50
2022-09-30T07:42:22.939Z,12.60
2022-09-30T07:44:51.903Z,12.60
2022-09-30T07:47:20.210Z,12.70
2022-09-30T07:49:47.442Z,12.70
2022-09-30T07:52:15.069Z,12.90
2022-09-30T07:54:48.025Z,12.90
2022-09-30T07:57:17.733Z,13.10
2022-09-30T07:59:44.514Z,13.20
2022-09-30T08:02:16.653Z,13.30
2022-09-30T08:04:44.536Z,13.40
2022-09-30T08:07:13.149Z,13.50
2022-09-30T08:09:39.891Z,13.40
2022-09-30T08:12:06.676Z,13.60
2022-09-30T08:14:33.590Z,13.80
2022-09-30T08:17:00.837Z,13.80
2022-09-30T08:19:30.231Z,14.00
2022-09-30T08:21:57.817Z,14.00
2022-09-30T08:24:26.296Z,14.20
2022-09-30T08:26:53.947Z,14.20
2022-09-30T08:29:42.476Z,14.30
2022-09-30T08:32:07.755Z,14.60
2022-09-30T08:34:35.460Z,14.50
2022-09-30T08:37:07.843Z,14.70
2022-09-30T08:39:36.138Z,14.70
2022-09-30T08:42:38.634Z,14.80
2022-09-30T08:45:22.127Z,14.90
2022-09-30T08:47:58.062Z,15.00
2022-09-30T08:50:45.681Z,15.00
2022-09-30T08:53:23.398Z,15.20
2022-09-30T08:55:51.397Z,15.30
2022-09-30T08:58:27.581Z,15.40
2022-09-30T09:01:17.884Z,15.40
2022-09-30T09:03:45.302Z,15.70
2022-09-30T09:06:17.958Z,15.70
2022-09-30T09:08:53.247Z,15.80
2022-09-30T09:11:51.996Z,15.90
2022-09-30T09:14:28.676Z,16.00
2022-09-30T09:17:30.674Z,16.20
2022-09-30T09:20:15.344Z,16.50
2022-09-30T09:22:44.915Z,16.60
2022-09-30T09:25:27.930Z,16.70
2022-09-30T09:28:00.319Z,16.80
2022-09-30T09:30:34.662Z,17.60
2022-09-30T09:33:15.484Z,17.00
2022-09-30T09:36:31.102Z,17.20
2022-09-30T09:39:16.835Z,17.30
2022-09-30T09:42:13.261Z,17.40
2022-09-30T09:44:49.424Z,17.40
2022-09-30T09:47:17.180Z,17.50
2022-09-30T09:49:45.739Z,17.40
2022-09-30T09:52:12.794Z,17.40
2022-09-30T09:54:50.706Z,17.50
2022-09-30T09:57:24.706Z,17.50
2022-09-30T10:00:48.832Z,17.40
2022-09-30T10:03:21.692Z,17.50
2022-09-30T10:06:01.742Z,17.50
2022-09-30T10:08:31.209Z,17.60
2022-09-30T10:11:20.333Z,17.70
2022-09-30T10:13:47.479Z,18.40
2022-09-30T10:16:35.546Z,17.70
2022-09-30T10:19:18.433Z,17.80
2022-09-30T10:21:45.820Z,17.80
2022-09-30T10:24:20.476Z,17.70
2022-09-30T10:26:48.918Z,17.60
2022-09-30T10:29:34.302Z,17.80
2022-09-30T10:32:03.042Z,17.90
2022-09-30T10:34:41.634Z,18.40
2022-09-30T10:37:26.286Z,18.00
2022-09-30T10:40:06.295Z,18.10
2022-09-30T10:42:35.633Z,18.20
2022-09-30T10:45:10.409Z,18.30
2022-09-30T10:47:45.917Z,18.50
2022-09-30T10:50:17.053Z,18.70
2022-09-30T10:53:05.861Z,18.40
2022-09-30T10:55:42.571Z,18.50
2022-09-30T10:58:47.268Z,18.40
2022-09-30T11:01:28.635Z,18.60
2022-09-30T11:04:02.841Z,18.50
2022-09-30T11:06:33.529Z,18.60
2022-09-30T11:09:03.867Z,18.70
2022-09-30T11:11:45.666Z,18.70
2022-09-30T11:14:27.347Z,19.00
2022-09-30T11:17:24.438Z,19.00
2022-09-30T11:20:09.123Z,19.70
2022-09-30T11:22:39.656Z,19.10
2022-09-30T11:25:11.065Z,19.10
2022-09-30T11:27:56.346Z,19.20
2022-09-30T11:30:55.606Z,19.10
2022-09-30T11:33:44.022Z,19.30
2022-09-30T11:36:19.584Z,19.30
2022-09-30T11:39:21.474Z,19.40
2022-09-30T11:41:52.970Z,19.50
2022-09-30T11:44:35.151Z,19.50
2022-09-30T11:47:34.017Z,19.60
2022-09-30T11:50:06.875Z,19.90
2022-09-30T11:52:49.942Z,20.30
2022-09-30T11:55:28.873Z,19.90
2022-09-30T11:58:36.323Z,20.50
2022-09-30T12:01:01.618Z,20.20
2022-09-30T12:03:38.320Z,19.60
2022-09-30T12:06:34.056Z,19.80
2022-09-30T12:09:20.792Z,19.90
2022-09-30T12:12:02.018Z,20.30
2022-09-30T12:14:49.707Z,21.20
2022-09-30T12:17:29.701Z,20.10
2022-09-30T12:19:59.828Z,19.80
2022-09-30T12:22:56.107Z,19.60
2022-09-30T12:25:31.810Z,19.60
2022-09-30T12:28:33.189Z,19.80
2022-09-30T12:31:26.393Z,20.00
2022-09-30T12:34:18.682Z,20.40
2022-09-30T12:37:08.382Z,20.50
2022-09-30T12:40:05.272Z,20.80
2022-09-30T12:43:16.106Z,20.90
2022-09-30T12:45:42.801Z,20.60
2022-09-30T12:48:17.440Z,20.50
2022-09-30T12:50:53.021Z,20.80
2022-09-30T12:53:27.649Z,20.80
2022-09-30T12:56:01.888Z,20.90
2022-09-30T12:58:34.561Z,20.70
2022-09-30T13:01:23.252Z,20.50
2022-09-30T13:04:16.951Z,20.40
2022-09-30T13:06:46.686Z,20.40
2022-09-30T13:09:54.882Z,20.20
2022-09-30T13:12:27.113Z,20.60
2022-09-30T13:15:28.985Z,20.90
2022-09-30T13:18:02.460Z,21.10
2022-09-30T13:20:56.639Z,20.90
2022-09-30T13:23:37.450Z,21.40
2022-09-30T13:26:25.094Z,21.60
2022-09-30T13:29:13.152Z,21.70
2022-09-30T13:31:46.018Z,22.00
2022-09-30T13:34:21.545Z,21.70
2022-09-30T13:36:51.215Z,21.90
2022-09-30T13:39:43.862Z,21.50
2022-09-30T13:42:14.947Z,21.20
2022-09-30T13:44:59.356Z,21.20
2022-09-30T13:47:50.540Z,21.30
2022-09-30T13:50:29.714Z,21.50
2022-09-30T13:53:00.966Z,21.50
2022-09-30T13:55:38.246Z,21.60
2022-09-30T13:58:04.856Z,21.60
2022-09-30T14:00:54.438Z,21.50
2022-09-30T14:04:14.988Z,21.50
2022-09-30T14:07:13.027Z,21.40
2022-09-30T14:09:42.815Z,21.30
2022-09-30T14:12:14.886Z,21.00
2022-09-30T14:15:06.242Z,20.90
2022-09-30T14:18:14.408Z,20.80
2022-09-30T14:21:01.874Z,20.70
2022-09-30T14:23:28.900Z,20.50
2022-09-30T14:26:10.365Z,20.40
2022-09-30T14:28:45.621Z,20.20
2022-09-30T14:31:15.187Z,20.40
2022-09-30T14:33:47.060Z,20.40
2022-09-30T14:36:17.669Z,21.20
2022-09-30T14:38:48.626Z,20.30
2022-09-30T14:41:20.662Z,20.50
2022-09-30T14:43:50.129Z,20.50
2022-09-30T14:46:46.959Z,20.30
2022-09-30T14:49:22.843Z,21.30
2022-09-30T14:51:50.201Z,20.60
2022-09-30T14:54:23.358Z,20.50
2022-09-30T14:56:54.428Z,20.70
2022-09-30T14:59:31.257Z,20.70
2022-09-30T15:02:04.082Z,20.80
2022-09-30T15:04:34.865Z,20.90
2022-09-30T15:07:04.409Z,21.30
2022-09-30T15:09:39.794Z,21.20
2022-09-30T15:12:16.483Z,21.10
2022-09-30T15:14:53.664Z,21.40
2022-09-30T15:17:29.391Z,21.40
2022-09-30T15:19:58.301Z,21.60
2022-09-30T15:22:27.873Z,21.60
2022-09-30T15:24:56.703Z,22.00
2022-09-30T15:27:35.237Z,21.70
2022-09-30T15:30:22.402Z,21.80
2022-09-30T15:32:56.634Z,21.80
2022-09-30T15:35:23.937Z,21.80
2022-09-30T15:37:51.920Z,22.30
2022-09-30T15:40:41.450Z,21.80
2022-09-30T15:43:11.736Z,22.10
2022-09-30T15:45:43.801Z,21.60
2022-09-30T15:48:13.559Z,20.90
2022-09-30T15:50:45.570Z,20.60
2022-09-30T15:53:25.122Z,20.40
2022-09-30T15:55:57.846Z,20.10
2022-09-30T15:58:33.600Z,20.60
2022-09-30T16:01:15.345Z,19.90
2022-09-30T16:04:26.154Z,19.90
2022-09-30T16:06:58.170Z,20.00
2022-09-30T16:09:30.125Z,19.90
2022-09-30T16:11:59.768Z,19.90
2022-09-30T16:14:29.745Z,19.60
2022-09-30T16:16:59.232Z,19.50
2022-09-30T16:19:28.148Z,19.40
2022-09-30T16:21:55.852Z,19.30
2022-09-30T16:24:22.482Z,20.00
2022-09-30T16:26:56.822Z,19.80
2022-09-30T16:29:28.951Z,19.20
2022-09-30T16:31:56.752Z,19.00
2022-09-30T16:34:27.717Z,18.90
2022-09-30T16:37:03.149Z,18.90
2022-09-30T16:39:29.813Z,18.70
2022-09-30T16:41:56.513Z,18.70
2022-09-30T16:44:23.999Z,18.70
2022-09-30T16:46:51.616Z,18.50
2022-09-30T16:49:19.965Z,18.80
2022-09-30T16:51:46.891Z,18.50
2022-09-30T16:54:13.560Z,18.30
2022-09-30T16:56:40.223Z,18.30
2022-09-30T16:59:14.427Z,18.20
2022-09-30T17:01:42.050Z,18.10
2022-09-30T17:04:12.886Z,18.60
2022-09-30T17:06:42.038Z,18.30
2022-09-30T17:09:08.703Z,18.20
2022-09-30T17:11:37.859Z,17.90
2022-09-30T17:14:05.390Z,17.80
2022-09-30T17:16:33.485Z,18.60
2022-09-30T17:19:00.566Z,17.80
2022-09-30T17:21:27.643Z,17.60
2022-09-30T17:23:55.433Z,17.70
2022-09-30T17:26:22.570Z,17.70
2022-09-30T17:28:49.233Z,17.50
2022-09-30T17:31:16.113Z,17.50
2022-09-30T17:33:42.857Z,17.50
2022-09-30T17:36:12.318Z,17.40
2022-09-30T17:38:39.917Z,17.40
2022-09-30T17:41:26.015Z,17.30
2022-09-30T17:43:52.656Z,17.30
2022-09-30T17:46:23.083Z,17.30
2022-09-30T17:48:54.179Z,17.20
2022-09-30T17:51:20.900Z,17.20
2022-09-30T17:53:48.120Z,17.10
2022-09-30T17:56:22.284Z,17.00
2022-09-30T17:58:50.627Z,17.10
2022-09-30T18:01:20.629Z,16.90
2022-09-30T18:03:47.898Z,16.90
2022-09-30T18:06:14.648Z,16.90
2022-09-30T18:08:41.473Z,16.80
2022-09-30T18:11:08.226Z,16.80
2022-09-30T18:13:35.094Z,16.70
2022-09-30T18:16:06.619Z,16.90
2022-09-30T18:18:34.571Z,16.80
2022-09-30T18:21:01.256Z,16.70
2022-09-30T18:23:27.949Z,16.70
2022-09-30T18:25:56.032Z,16.60
2022-09-30T18:28:22.968Z,16.60
2022-09-30T18:30:49.773Z,16.60
2022-09-30T18:33:17.334Z,16.60
2022-09-30T18:35:44.118Z,16.60
2022-09-30T18:38:12.690Z,16.60
2022-09-30T18:40:41.933Z,16.60
2022-09-30T18:43:13.372Z,16.40
2022-09-30T18:45:40.618Z,16.60
2022-09-30T18:48:08.357Z,16.60
2022-09-30T18:50:35.224Z,16.50
2022-09-30T18:53:09.532Z,16.60
2022-09-30T18:55:37.913Z,16.60
2022-09-30T18:58:04.871Z,16.50
2022-09-30T19:00:31.657Z,16.50
2022-09-30T19:02:58.415Z,16.60
2022-09-30T19:05:25.208Z,16.60
2022-09-30T19:07:53.571Z,16.60
2022-09-30T19:10:20.418Z,16.60
2022-09-30T19:12:47.443Z,16.50
2022-09-30T19:15:15.963Z,16.60
2022-09-30T19:17:46.466Z,16.60
2022-09-30T19:20:17.641Z,16.60
2022-09-30T19:22:44.415Z,16.90
2022-09-30T19:25:11.879Z,16.40
2022-09-30T19:27:40.825Z,16.40
2022-09-30T19:30:10.034Z,16.40
2022-09-30T19:32:38.210Z,16.50
2022-09-30T19:35:10.087Z,17.20
2022-09-30T19:37:37.054Z,16.60
2022-09-30T19:40:17.365Z,16.60
2022-09-30T19:42:48.200Z,16.60
2022-09-30T19:45:22.405Z,16.60
2022-09-30T19:47:50.638Z,17.00
2022-09-30T19:50:17.378Z,16.60
2022-09-30T19:52:54.428Z,16.70
2022-09-30T19:55:22.122Z,16.70
2022-09-30T19:57:48.794Z,16.70
2022-09-30T20:00:15.579Z,16.70
2022-09-30T20:02:42.578Z,16.70
2022-09-30T20:05:09.744Z,16.70
2022-09-30T20:07:36.401Z,16.80
2022-09-30T20:10:03.330Z,16.80
2022-09-30T20:12:30.029Z,16.90
2022-09-30T20:15:15.108Z,16.80
2022-09-30T20:17:41.833Z,16.70
2022-09-30T20:20:27.876Z,16.70
2022-09-30T20:22:54.608Z,16.80
2022-09-30T20:25:21.358Z,16.80
2022-09-30T20:27:52.201Z,16.70
2022-09-30T20:30:19.819Z,16.80
2022-09-30T20:32:46.537Z,16.70
2022-09-30T20:35:13.932Z,16.80
2022-09-30T20:37:41.760Z,16.80
2022-09-30T20:40:11.477Z,16.70
2022-09-30T20:42:39.900Z,16.80
2022-09-30T20:45:10.278Z,16.80
2022-09-30T20:47:38.227Z,16.90
2022-09-30T20:50:06.000Z,17.30
2022-09-30T20:52:32.710Z,17.20
2022-09-30T20:55:00.243Z,17.20
2022-09-30T20:57:31.209Z,16.70
2022-09-30T20:59:59.792Z,16.80
2022-09-30T21:02:30.345Z,16.70
2022-09-30T21:04:58.079Z,16.80
2022-09-30T21:07:26.157Z,16.70
2022-09-30T21:09:52.886Z,16.70
2022-09-30T21:12:19.622Z,16.70
2022-09-30T21:14:46.555Z,16.70
2022-09-30T21:17:13.372Z,17.50
2022-09-30T21:19:40.073Z,16.70
2022-09-30T21:22:07.187Z,17.50
2022-09-30T21:24:33.911Z,16.60
2022-09-30T21:27:01.586Z,16.60
2022-09-30T21:29:30.452Z,16.70
2022-09-30T21:31:57.207Z,16.70
2022-09-30T21:34:24.277Z,16.70
2022-09-30T21:36:51.102Z,16.70
2022-09-30T21:39:17.904Z,16.50
2022-09-30T21:41:45.553Z,16.60
2022-09-30T21:44:12.351Z,16.50
2022-09-30T21:46:39.091Z,16.30
2022-09-30T21:49:16.001Z,16.30
2022-09-30T21:51:42.744Z,16.40
2022-09-30T21:54:11.736Z,16.20
2022-09-30T21:56:38.922Z,16.20
2022-09-30T21:59:05.864Z,16.10
2022-09-30T22:01:33.040Z,16.10
2022-09-30T22:03:59.949Z,16.00
2022-09-30T22:06:26.898Z,16.00
2022-09-30T22:08:53.569Z,16.10
2022-09-30T22:11:25.133Z,15.70
2022-09-30T22:13:55.513Z,15.70
2022-09-30T22:16:25.943Z,15.60
2022-09-30T22:18:58.806Z,15.60
2022-09-30T22:21:26.413Z,15.60
2022-09-30T22:23:53.433Z,15.60
2022-09-30T22:26:22.491Z,15.60
2022-09-30T22:28:57.365Z,15.60
2022-09-30T22:31:26.824Z,15.60
2022-09-30T22:34:16.527Z,15.60
2022-09-30T22:37:02.382Z,15.50
2022-09-30T22:39:29.666Z,15.50
2022-09-30T22:41:57.743Z,15.50
2022-09-30T22:44:35.970Z,15.50
2022-09-30T22:47:03.950Z,15.40
2022-09-30T22:49:32.560Z,15.50
2022-09-30T22:51:59.769Z,15.40
2022-09-30T22:54:28.777Z,15.40
2022-09-30T22:56:56.089Z,15.40
2022-09-30T22:59:23.635Z,15.30
2022-09-30T23:01:50.464Z,15.30
2022-09-30T23:04:17.855Z,15.30
2022-09-30T23:06:49.601Z,15.20
2022-09-30T23:09:17.366Z,15.20
2022-09-30T23:11:45.964Z,15.20
2022-09-30T23:14:13.033Z,15.10
2022-09-30T23:16:40.113Z,15.20
2022-09-30T23:19:06.928Z,15.20
2022-09-30T23:21:34.149Z,15.20
2022-09-30T23:24:01.896Z,15.00
2022-09-30T23:26:29.671Z,15.10
2022-09-30T23:28:57.175Z,15.10
2022-09-30T23:31:24.147Z,15.00
2022-09-30T23:33:56.419Z,15.00
2022-09-30T23:36:29.674Z,15.00
2022-09-30T23:39:02.379Z,14.90
2022-09-30T23:41:30.707Z,14.90
2022-09-30T23:43:57.832Z,14.90
2022-09-30T23:46:24.589Z,15.00
2022-09-30T23:48:51.480Z,14.90
2022-09-30T23:51:19.154Z,14.90
2022-09-30T23:53:46.085Z,14.90
2022-09-30T23:56:15.449Z,14.90
2022-09-30T23:58:45.788Z,14.80
